Time;durP1;ratioP1;P1;durP2;ratioP2;P2;SDS_P1;SDS_P2;PMS_P1;PMS_P2;Temp;Humidity;BMP_temperature;BMP_pressure;BME280_temperature;BME280_humidity;BME280_pressure;Samples;Min_cycle;Max_cycle;Signal;HPM_P1;HPM_P2
2021/09/16 00:08:01;;;;;;;0.88;0.30;;;24.80;99.90;;;;;;21029225;28;20246;-74
2021/09/16 00:18:07;;;;;;;0.63;0.40;;;23.60;99.90;;;;;;21008577;28;20196;-72
2021/09/16 00:28:11;;;;;;;8.73;1.80;;;23.40;99.90;;;;;;20941351;28;20308;-73
2021/09/16 00:38:16;;;;;;;3.38;2.42;;;23.00;99.90;;;;;;20942131;28;20547;-73
2021/09/16 00:48:20;;;;;;;0.23;0.07;;;23.00;99.90;;;;;;20942065;28;20220;-73
2021/09/16 00:58:27;;;;;;;0.45;0.45;;;22.90;99.90;;;;;;20940339;28;20192;-74
2021/09/16 01:08:30;;;;;;;0.20;0.17;;;23.30;99.90;;;;;;21032146;22;20889;-66
2021/09/16 01:18:35;;;;;;;0.30;0.20;;;23.50;99.90;;;;;;21023640;28;20204;-67
2021/09/16 01:28:41;;;;;;;1.60;1.30;;;23.70;99.90;;;;;;21023308;28;20223;-65
2021/09/16 01:38:44;;;;;;;0.30;0.30;;;23.50;99.90;;;;;;21023070;28;20227;-63
2021/09/16 01:48:50;;;;;;;0.80;0.50;;;22.60;99.90;;;;;;21024857;28;20223;-65
2021/09/16 01:58:53;;;;;;;1.23;0.70;;;22.40;99.90;;;;;;21038660;28;20560;-66
2021/09/16 02:08:59;;;;;;;0.27;0.13;;;22.30;99.90;;;;;;21133720;22;20249;-74
2021/09/16 02:19:04;;;;;;;0.77;0.57;;;21.80;99.90;;;;;;21121119;28;20211;-73
2021/09/16 02:29:10;;;;;;;0.53;0.40;;;21.70;99.90;;;;;;21120436;28;20226;-74
2021/09/16 02:39:14;;;;;;;0.57;0.57;;;21.60;99.90;;;;;;21119360;28;20203;-74
2021/09/16 02:49:19;;;;;;;0.20;0.17;;;21.60;99.90;;;;;;21119059;28;20230;-74
2021/09/16 02:59:23;;;;;;;0.47;0.40;;;21.50;99.90;;;;;;21117926;28;20215;-74
2021/09/16 03:09:28;;;;;;;0.43;0.37;;;21.50;99.90;;;;;;21117969;28;20423;-74
2021/09/16 03:19:32;;;;;;;1.03;1.03;;;21.50;99.90;;;;;;21104790;28;20533;-74
2021/09/16 03:29:37;;;;;;;0.70;0.33;;;21.60;99.90;;;;;;21030360;28;20222;-73
2021/09/16 03:39:42;;;;;;;2.67;0.87;;;21.60;99.90;;;;;;21013142;28;20875;-72
2021/09/16 03:49:47;;;;;;;0.50;0.40;;;21.60;99.90;;;;;;21028343;28;20621;-72
2021/09/16 03:59:51;;;;;;;0.40;0.20;;;21.80;99.90;;;;;;21032092;28;20379;-71
2021/09/16 04:09:57;;;;;;;0.20;0.00;;;21.90;99.90;;;;;;21027285;28;20227;-72
2021/09/16 04:20:00;;;;;;;0.20;0.10;;;22.10;99.90;;;;;;21042429;28;20373;-74
2021/09/16 04:30:07;;;;;;;0.50;0.50;;;22.00;99.90;;;;;;21093282;28;20226;-75
2021/09/16 04:40:11;;;;;;;0.20;0.10;;;21.80;99.90;;;;;;21110121;28;20202;-74
2021/09/16 04:50:17;;;;;;;0.90;0.67;;;21.90;99.90;;;;;;21108909;28;20393;-76
2021/09/16 05:00:20;;;;;;;0.50;0.40;;;21.60;99.90;;;;;;21108662;28;20245;-75
2021/09/16 05:10:25;;;;;;;0.50;0.30;;;21.40;99.90;;;;;;21108930;28;20696;-75
2021/09/16 05:20:29;;;;;;;1.90;0.67;;;21.40;99.90;;;;;;21100640;28;20463;-75
2021/09/16 05:30:34;;;;;;;0.77;0.50;;;21.40;99.90;;;;;;21041679;28;20232;-75
2021/09/16 05:40:38;;;;;;;0.20;0.00;;;21.10;99.90;;;;;;21042118;28;20660;-76
2021/09/16 05:50:44;;;;;;;0.40;0.40;;;21.00;99.90;;;;;;21037327;28;20227;-72
2021/09/16 06:00:48;;;;;;;0.27;0.27;;;20.90;99.90;;;;;;21032983;28;20224;-78
2021/09/16 06:10:53;;;;;;;0.20;0.10;;;21.10;99.90;;;;;;21030820;28;20257;-75
2021/09/16 06:20:57;;;;;;;0.20;0.00;;;20.90;99.90;;;;;;21056802;28;20183;-75
2021/09/16 06:31:02;;;;;;;0.20;0.10;;;20.80;99.90;;;;;;21119337;28;20603;-72
2021/09/16 06:41:06;;;;;;;0.20;0.00;;;20.80;99.90;;;;;;21120726;28;20204;-73
2021/09/16 06:51:11;;;;;;;0.20;0.00;;;21.00;99.90;;;;;;21119869;28;20364;-72
2021/09/16 07:01:35;;;;;;;0.40;0.40;;;21.20;99.90;;;;;;21116625;28;20219;-71
2021/09/16 07:11:43;;;;;;;0.20;0.05;;;22.00;99.90;;;;;;21098156;28;20524;-72
2021/09/16 07:21:47;;;;;;;0.20;0.00;;;22.50;99.90;;;;;;21083668;28;20196;-72
2021/09/16 07:31:53;;;;;;;0.40;0.22;;;22.80;99.90;;;;;;21049123;28;20350;-72
2021/09/16 07:41:56;;;;;;;0.47;0.13;;;23.30;99.90;;;;;;21030314;28;20184;-73
2021/09/16 07:52:02;;;;;;;0.20;0.10;;;23.60;99.90;;;;;;21029513;28;20518;-72
2021/09/16 08:02:08;;;;;;;0.20;0.10;;;23.70;99.90;;;;;;21027357;28;20231;-73
2021/09/16 08:12:14;;;;;;;0.20;0.20;;;23.80;99.90;;;;;;21110254;28;20669;-75
2021/09/16 08:22:17;;;;;;;0.32;0.32;;;24.00;99.90;;;;;;21094537;28;20232;-71
2021/09/16 08:32:23;;;;;;;0.20;0.05;;;24.50;99.90;;;;;;21110429;28;20246;-72
2021/09/16 08:42:27;;;;;;;0.95;0.35;;;24.90;99.90;;;;;;21093202;28;20619;-71
2021/09/16 08:52:37;;;;;;;0.20;0.10;;;26.00;99.90;;;;;;21109803;28;20234;-74
2021/09/16 09:02:41;;;;;;;0.20;0.00;;;25.90;99.90;;;;;;21106718;28;20238;-70
2021/09/16 09:12:47;;;;;;;0.20;0.00;;;26.40;99.90;;;;;;21087091;28;20226;-69
2021/09/16 09:22:51;;;;;;;0.20;0.00;;;26.40;99.90;;;;;;21067782;28;20241;-70
2021/09/16 09:33:00;;;;;;;0.20;0.00;;;26.20;99.90;;;;;;21023600;28;20715;-73
2021/09/16 09:43:21;;;;;;;0.35;0.30;;;26.40;99.90;;;;;;21023113;28;20660;-71
2021/09/16 09:53:27;;;;;;;0.20;0.00;;;26.90;99.90;;;;;;21021737;28;20546;-71
2021/09/16 10:03:33;;;;;;;0.20;0.00;;;27.20;99.90;;;;;;21028045;28;20693;-74
2021/09/16 10:13:39;;;;;;;0.20;0.10;;;27.50;99.90;;;;;;21036174;28;20681;-76
2021/09/16 10:23:43;;;;;;;0.63;0.50;;;27.80;99.90;;;;;;21084893;28;20191;-70
2021/09/16 10:33:50;;;;;;;0.20;0.00;;;27.30;99.90;;;;;;21102168;28;20323;-73
2021/09/16 10:44:19;;;;;;;0.73;0.35;;;27.30;99.90;;;;;;21119937;28;20597;-72
2021/09/16 10:54:40;;;;;;;0.50;0.45;;;28.50;99.90;;;;;;21117324;28;20219;-72
2021/09/16 11:05:10;;;;;;;0.30;0.30;;;27.70;99.90;;;;;;21116177;28;20247;-72
2021/09/16 11:15:25;;;;;;;0.20;0.10;;;27.10;99.90;;;;;;21099673;28;20219;-70
2021/09/16 11:25:36;;;;;;;0.43;0.30;;;26.90;99.90;;;;;;21055091;28;20213;-70
2021/09/16 11:35:41;;;;;;;0.22;0.13;;;27.20;99.90;;;;;;21029037;28;20658;-70
2021/09/16 11:45:48;;;;;;;0.47;0.30;;;27.50;99.90;;;;;;21032558;28;20583;-71
2021/09/16 11:55:55;;;;;;;1.85;0.43;;;29.10;99.90;;;;;;21030631;28;20223;-72
2021/09/16 12:06:00;;;;;;;0.20;0.03;;;29.30;99.90;;;;;;21028701;28;20223;-71
2021/09/16 12:16:16;;;;;;;0.65;0.50;;;30.90;99.90;;;;;;21027414;28;20751;-74
2021/09/16 12:26:22;;;;;;;0.75;0.75;;;32.10;99.90;;;;;;21094312;28;20637;-75
2021/09/16 12:36:30;;;;;;;1.38;0.50;;;32.00;99.90;;;;;;21101180;28;20577;-73
2021/09/16 12:46:59;;;;;;;0.20;0.10;;;32.50;99.90;;;;;;21106923;28;20203;-78
2021/09/16 12:57:05;;;;;;;0.20;0.20;;;32.30;99.90;;;;;;21098137;28;20284;-76
2021/09/16 13:07:12;;;;;;;0.43;0.22;;;32.00;99.90;;;;;;21109349;28;20889;-73
2021/09/16 13:17:17;;;;;;;0.77;0.50;;;32.40;99.90;;;;;;21105639;28;20222;-73
2021/09/16 13:27:22;;;;;;;0.50;0.30;;;32.90;99.90;;;;;;21038333;28;20335;-71
2021/09/16 13:37:28;;;;;;;1.33;0.45;;;33.40;99.90;;;;;;21028177;28;20219;-75
2021/09/16 13:47:32;;;;;;;0.85;0.50;;;33.50;99.90;;;;;;21041501;28;20195;-74
2021/09/16 13:57:38;;;;;;;0.20;0.03;;;33.70;99.90;;;;;;21039778;28;20226;-73
2021/09/16 14:07:42;;;;;;;0.43;0.35;;;34.10;99.90;;;;;;21035403;28;20216;-72
2021/09/16 14:17:47;;;;;;;0.20;0.20;;;34.00;99.90;;;;;;21037800;28;20343;-71
2021/09/16 14:27:51;;;;;;;0.85;0.45;;;33.80;99.90;;;;;;21105066;28;20183;-74
2021/09/16 14:37:56;;;;;;;4.13;0.73;;;33.90;99.90;;;;;;21121918;28;20223;-71
2021/09/16 14:48:00;;;;;;;0.22;0.15;;;34.20;99.90;;;;;;21117115;28;20615;-71
2021/09/16 14:58:05;;;;;;;0.68;0.68;;;31.60;99.90;;;;;;21117560;28;20313;-71
2021/09/16 15:08:09;;;;;;;0.30;0.25;;;28.90;99.90;;;;;;21116346;28;20587;-73
2021/09/16 15:18:14;;;;;;;0.20;0.10;;;29.30;99.90;;;;;;21097799;28;20223;-71
2021/09/16 15:28:18;;;;;;;5.03;0.98;;;33.20;99.90;;;;;;21029790;28;20684;-70
2021/09/16 15:38:23;;;;;;;0.63;0.15;;;31.00;99.90;;;;;;21029266;28;20499;-71
2021/09/16 15:48:28;;;;;;;0.30;0.30;;;28.50;99.90;;;;;;21027684;28;20196;-72
2021/09/16 15:58:33;;;;;;;0.30;0.10;;;27.90;99.90;;;;;;21028860;28;20238;-73
2021/09/16 16:08:37;;;;;;;0.40;0.20;;;27.60;99.90;;;;;;21025956;28;20316;-72
2021/09/16 16:18:43;;;;;;;0.20;0.05;;;27.30;99.90;;;;;;21032706;28;20219;-72
2021/09/16 16:28:47;;;;;;;0.22;0.17;;;27.10;99.90;;;;;;21110351;28;20195;-70
2021/09/16 16:38:52;;;;;;;2.28;0.80;;;27.10;99.90;;;;;;21089860;28;20825;-70
2021/09/16 16:48:56;;;;;;;0.77;0.77;;;27.20;99.90;;;;;;21109082;28;20532;-73
2021/09/16 16:59:03;;;;;;;0.20;0.20;;;27.00;99.90;;;;;;21108057;28;20234;-72
2021/09/16 17:09:06;;;;;;;0.30;0.30;;;26.90;99.90;;;;;;21106444;28;20327;-73
2021/09/16 17:19:11;;;;;;;0.20;0.00;;;26.70;99.90;;;;;;21094207;28;20227;-72
2021/09/16 17:29:15;;;;;;;0.60;0.13;;;26.00;99.90;;;;;;21024649;28;20737;-71
2021/09/16 17:39:20;;;;;;;0.20;0.17;;;25.60;99.90;;;;;;21037618;28;20212;-71
2021/09/16 17:49:24;;;;;;;0.20;0.00;;;25.80;99.90;;;;;;21020559;28;20862;-70
2021/09/16 17:59:29;;;;;;;2.15;0.40;;;25.40;99.90;;;;;;21018920;28;20219;-72
2021/09/16 18:09:33;;;;;;;0.40;0.30;;;25.10;99.90;;;;;;21018729;28;20228;-74
2021/09/16 18:19:38;;;;;;;0.20;0.10;;;25.10;99.90;;;;;;21032203;28;20303;-71
2021/09/16 18:29:41;;;;;;;0.20;0.10;;;25.20;99.90;;;;;;21099635;28;20199;-71
2021/09/16 18:39:47;;;;;;;15.52;8.80;;;24.80;99.90;;;;;;21115580;28;20706;-71
2021/09/16 18:49:52;;;;;;;0.90;0.90;;;24.80;99.90;;;;;;21098186;28;20199;-82
2021/09/16 18:59:57;;;;;;;0.30;0.30;;;24.70;99.90;;;;;;21114005;28;20322;-71
2021/09/16 19:10:01;;;;;;;0.43;0.38;;;24.40;99.90;;;;;;21115343;28;20211;-71
2021/09/16 19:20:09;;;;;;;1.00;0.95;;;24.10;99.90;;;;;;21097919;28;20822;-71
2021/09/16 19:30:14;;;;;;;0.82;0.28;;;24.10;99.90;;;;;;21027463;28;20197;-72
2021/09/16 19:40:19;;;;;;;0.60;0.60;;;24.00;99.90;;;;;;21030794;28;20196;-74
2021/09/16 19:50:23;;;;;;;0.80;0.15;;;23.60;99.90;;;;;;21026558;28;20207;-71
2021/09/16 20:00:28;;;;;;;0.77;0.63;;;23.60;99.90;;;;;;21029746;28;20220;-72
2021/09/16 20:10:31;;;;;;;0.35;0.15;;;23.20;99.90;;;;;;21028740;28;20240;-72
2021/09/16 20:20:36;;;;;;;0.38;0.38;;;23.10;99.90;;;;;;21049697;28;20453;-71
2021/09/16 20:30:40;;;;;;;0.52;0.52;;;23.20;99.90;;;;;;21111047;28;20665;-71
2021/09/16 20:40:45;;;;;;;0.40;0.15;;;22.90;99.90;;;;;;21110391;28;20207;-71
2021/09/16 20:50:51;;;;;;;0.30;0.25;;;23.20;99.90;;;;;;21106669;28;20306;-69
2021/09/16 21:00:57;;;;;;;0.75;0.43;;;23.10;99.90;;;;;;21108175;28;20737;-70
2021/09/16 21:11:01;;;;;;;0.20;0.20;;;23.10;99.90;;;;;;21090275;28;20237;-71
2021/09/16 21:21:06;;;;;;;0.22;0.22;;;23.10;99.90;;;;;;21083341;28;20203;-71
2021/09/16 21:31:09;;;;;;;0.20;0.10;;;23.30;99.90;;;;;;21023403;28;20597;-71
2021/09/16 21:41:14;;;;;;;0.40;0.30;;;23.40;99.90;;;;;;21022346;28;20220;-71
2021/09/16 21:51:18;;;;;;;0.30;0.20;;;23.30;99.90;;;;;;21023546;28;20236;-71
2021/09/16 22:01:23;;;;;;;0.25;0.20;;;23.30;99.90;;;;;;21031232;28;20234;-70
2021/09/16 22:11:27;;;;;;;6.45;0.88;;;23.40;99.90;;;;;;21037824;28;20224;-72
2021/09/16 22:21:31;;;;;;;1.75;1.40;;;23.40;99.90;;;;;;21065078;28;20542;-71
2021/09/16 22:31:35;;;;;;;0.20;0.00;;;23.30;99.90;;;;;;21121531;28;20233;-71
2021/09/16 22:41:41;;;;;;;0.68;0.65;;;23.20;99.90;;;;;;21101969;28;20226;-71
2021/09/16 22:51:44;;;;;;;0.30;0.25;;;23.20;99.90;;;;;;21119700;28;20249;-72
2021/09/16 23:01:49;;;;;;;0.30;0.30;;;23.30;99.90;;;;;;21116855;28;20238;-70
2021/09/16 23:11:53;;;;;;;0.20;0.20;;;23.20;99.90;;;;;;21116857;28;20227;-72
2021/09/16 23:21:59;;;;;;;1.00;0.30;;;23.10;99.90;;;;;;21084775;28;20195;-72
2021/09/16 23:32:02;;;;;;;0.30;0.30;;;23.00;99.90;;;;;;21030610;28;20235;-72
2021/09/16 23:42:07;;;;;;;1.50;0.85;;;23.10;99.90;;;;;;21030362;28;20196;-71
2021/09/16 23:52:11;;;;;;;0.68;0.57;;;23.00;99.90;;;;;;21029712;28;20224;-71
